createdAt,value
2023-01-29T00:00:02.097Z,1010.18
2023-01-29T00:01:02.077Z,1010.20
2023-01-29T00:02:02.198Z,1010.19
2023-01-29T00:03:02.080Z,1010.17
2023-01-29T00:04:02.065Z,1010.17
2023-01-29T00:05:16.727Z,1010.25
2023-01-29T00:06:03.028Z,1010.24
2023-01-29T00:07:02.050Z,1010.20
2023-01-29T00:08:01.995Z,1010.20
2023-01-29T00:09:01.985Z,1010.19
2023-01-29T00:10:02.005Z,1010.15
2023-01-29T00:11:01.986Z,1010.17
2023-01-29T00:12:01.973Z,1010.17
2023-01-29T00:13:01.967Z,1010.16
2023-01-29T00:14:01.932Z,1010.15
2023-01-29T00:15:01.926Z,1010.13
2023-01-29T00:16:01.941Z,1010.14
2023-01-29T00:17:01.964Z,1010.14
2023-01-29T00:18:01.914Z,1010.09
2023-01-29T00:19:01.870Z,1010.12
2023-01-29T00:20:01.864Z,1010.12
2023-01-29T00:21:01.859Z,1010.09
2023-01-29T00:22:01.960Z,1010.07
2023-01-29T00:23:01.900Z,1010.05
2023-01-29T00:24:01.912Z,1010.06
2023-01-29T00:25:01.809Z,1010.02
2023-01-29T00:26:01.800Z,1010.02
2023-01-29T00:27:01.786Z,1010.04
2023-01-29T00:28:01.809Z,1010.03
2023-01-29T00:29:01.785Z,1010.02
2023-01-29T00:30:01.766Z,1010.04
2023-01-29T00:31:01.840Z,1010.04
2023-01-29T00:32:01.894Z,1010.03
2023-01-29T00:33:01.747Z,1010.03
2023-01-29T00:34:01.746Z,1010.01
2023-01-29T00:35:01.718Z,1010.01
2023-01-29T00:36:01.699Z,1010.02
2023-01-29T00:37:01.673Z,1010.05
2023-01-29T00:38:01.710Z,1010.04
2023-01-29T00:39:01.672Z,1009.98
2023-01-29T00:40:01.663Z,1009.97
2023-01-29T00:41:01.652Z,1009.94
2023-01-29T00:42:01.627Z,1009.94
2023-01-29T00:43:01.607Z,1009.91
2023-01-29T00:44:01.626Z,1009.93
2023-01-29T00:45:01.631Z,1009.92
2023-01-29T00:46:01.605Z,1009.90
2023-01-29T00:47:01.573Z,1009.89
2023-01-29T00:48:01.591Z,1009.92
2023-01-29T00:49:01.576Z,1009.88
2023-01-29T00:50:01.606Z,1009.92
2023-01-29T00:51:01.573Z,1009.94
2023-01-29T00:52:01.562Z,1009.92
2023-01-29T00:53:01.517Z,1009.85
2023-01-29T00:54:01.563Z,1009.86
2023-01-29T00:55:01.517Z,1009.85
2023-01-29T00:56:01.467Z,1009.85
2023-01-29T00:57:01.511Z,1009.80
2023-01-29T00:58:01.451Z,1009.81
2023-01-29T00:59:01.464Z,1009.76
2023-01-29T01:00:01.489Z,1009.76
2023-01-29T01:01:01.476Z,1009.77
2023-01-29T01:02:01.484Z,1009.77
2023-01-29T01:03:01.389Z,1009.78
2023-01-29T01:04:01.411Z,1009.80
2023-01-29T01:05:01.442Z,1009.80
2023-01-29T01:06:01.371Z,1009.78
2023-01-29T01:07:01.343Z,1009.80
2023-01-29T01:08:01.352Z,1009.84
2023-01-29T01:09:01.340Z,1009.85
2023-01-29T01:10:01.359Z,1009.87
2023-01-29T01:11:01.319Z,1009.88
2023-01-29T01:12:01.294Z,1009.79
2023-01-29T01:13:01.283Z,1009.89
2023-01-29T01:14:01.297Z,1009.87
2023-01-29T01:15:01.290Z,1009.89
2023-01-29T01:16:01.311Z,1009.87
2023-01-29T01:17:01.244Z,1009.91
2023-01-29T01:18:01.226Z,1009.91
2023-01-29T01:19:01.240Z,1009.84
2023-01-29T01:20:01.238Z,1009.84
2023-01-29T01:21:01.211Z,1009.78
2023-01-29T01:22:01.227Z,1009.78
2023-01-29T01:23:01.194Z,1009.78
2023-01-29T01:24:01.189Z,1009.77
2023-01-29T01:25:01.172Z,1009.78
2023-01-29T01:26:01.138Z,1009.81
2023-01-29T01:27:01.156Z,1009.80
2023-01-29T01:28:01.139Z,1009.84
2023-01-29T01:29:01.105Z,1009.79
2023-01-29T01:30:01.161Z,1009.80
2023-01-29T01:31:01.117Z,1009.81
2023-01-29T01:32:01.149Z,1009.81
2023-01-29T01:33:01.082Z,1009.83
2023-01-29T01:34:01.053Z,1009.85
2023-01-29T01:35:01.080Z,1009.91
2023-01-29T01:36:01.025Z,1009.88
2023-01-29T01:37:01.026Z,1009.93
2023-01-29T01:38:01.007Z,1009.89
2023-01-29T01:39:00.995Z,1009.86
2023-01-29T01:40:01.002Z,1009.82
2023-01-29T01:41:00.972Z,1009.80
2023-01-29T01:42:00.975Z,1009.84
2023-01-29T01:43:00.971Z,1009.82
2023-01-29T01:44:00.945Z,1009.78
2023-01-29T01:45:00.955Z,1009.80
2023-01-29T01:46:00.994Z,1009.83
2023-01-29T01:47:00.909Z,1009.83
2023-01-29T01:48:00.911Z,1009.79
2023-01-29T01:49:00.904Z,1009.76
2023-01-29T01:50:00.878Z,1009.77
2023-01-29T01:51:00.873Z,1009.80
2023-01-29T01:52:00.870Z,1009.81
2023-01-29T01:53:00.839Z,1009.87
2023-01-29T01:54:00.848Z,1009.87
2023-01-29T01:55:00.845Z,1009.87
2023-01-29T01:56:00.830Z,1009.85
2023-01-29T01:57:00.796Z,1009.79
2023-01-29T01:58:00.795Z,1009.82
2023-01-29T01:59:00.815Z,1009.79
2023-01-29T02:00:00.789Z,1009.78
2023-01-29T02:01:00.865Z,1009.76
2023-01-29T02:02:00.798Z,1009.73
2023-01-29T02:03:00.731Z,1009.62
2023-01-29T02:04:00.737Z,1009.62
2023-01-29T02:05:00.717Z,1009.58
2023-01-29T02:06:00.744Z,1009.54
2023-01-29T02:07:00.692Z,1009.58
2023-01-29T02:08:00.685Z,1009.56
2023-01-29T02:09:00.701Z,1009.56
2023-01-29T02:10:00.657Z,1009.53
2023-01-29T02:11:00.722Z,1009.48
2023-01-29T02:12:00.639Z,1009.44
2023-01-29T02:13:00.629Z,1009.42
2023-01-29T02:14:00.638Z,1009.49
2023-01-29T02:15:00.625Z,1009.47
2023-01-29T02:16:00.595Z,1009.40
2023-01-29T02:17:00.587Z,1009.37
2023-01-29T02:18:00.564Z,1009.35
2023-01-29T02:19:00.574Z,1009.39
2023-01-29T02:20:00.563Z,1009.34
2023-01-29T02:21:00.530Z,1009.41
2023-01-29T02:22:00.522Z,1009.44
2023-01-29T02:23:02.545Z,1009.42
2023-01-29T02:24:00.694Z,1009.47
2023-01-29T02:25:00.511Z,1009.50
2023-01-29T02:26:00.481Z,1009.40
2023-01-29T02:27:00.470Z,1009.33
2023-01-29T02:28:00.458Z,1009.40
2023-01-29T02:29:00.491Z,1009.42
2023-01-29T02:30:00.452Z,1009.38
2023-01-29T02:31:00.605Z,1009.37
2023-01-29T02:32:00.526Z,1009.37
2023-01-29T02:33:00.402Z,1009.38
2023-01-29T02:34:00.462Z,1009.37
2023-01-29T02:35:00.381Z,1009.36
2023-01-29T02:36:00.381Z,1009.39
2023-01-29T02:37:00.355Z,1009.40
2023-01-29T02:38:00.487Z,1009.44
2023-01-29T02:39:00.356Z,1009.36
2023-01-29T02:40:00.339Z,1009.31
2023-01-29T02:41:00.312Z,1009.30
2023-01-29T02:42:00.305Z,1009.27
2023-01-29T02:43:00.323Z,1009.31
2023-01-29T02:44:00.278Z,1009.37
2023-01-29T02:45:00.266Z,1009.42
2023-01-29T02:46:00.383Z,1009.44
2023-01-29T02:47:00.268Z,1009.44
2023-01-29T02:48:00.251Z,1009.44
2023-01-29T02:49:00.263Z,1009.43
2023-01-29T02:50:00.211Z,1009.43
2023-01-29T02:51:00.203Z,1009.49
2023-01-29T02:52:00.213Z,1009.51
2023-01-29T02:53:00.187Z,1009.50
2023-01-29T02:54:00.167Z,1009.52
2023-01-29T02:55:00.186Z,1009.50
2023-01-29T02:56:00.150Z,1009.52
2023-01-29T02:57:00.161Z,1009.54
2023-01-29T02:58:00.137Z,1009.58
2023-01-29T02:59:00.140Z,1009.59
2023-01-29T03:00:00.125Z,1009.61
2023-01-29T03:01:00.123Z,1009.62
2023-01-29T03:02:00.231Z,1009.60
2023-01-29T03:03:00.115Z,1009.61
2023-01-29T03:04:00.060Z,1009.59
2023-01-29T03:05:00.078Z,1009.59
2023-01-29T03:06:00.043Z,1009.65
2023-01-29T03:07:00.057Z,1009.60
2023-01-29T03:08:00.017Z,1009.56
2023-01-29T03:09:00.016Z,1009.57
2023-01-29T03:09:59.996Z,1009.59
2023-01-29T03:10:59.999Z,1009.57
2023-01-29T03:12:00.001Z,1009.64
2023-01-29T03:12:59.979Z,1009.67
2023-01-29T03:13:59.954Z,1009.67
2023-01-29T03:14:59.937Z,1009.67
2023-01-29T03:15:59.941Z,1009.64
2023-01-29T03:16:59.946Z,1009.58
2023-01-29T03:17:59.944Z,1009.56
2023-01-29T03:18:59.909Z,1009.55
2023-01-29T03:19:59.883Z,1009.53
2023-01-29T03:20:59.878Z,1009.51
2023-01-29T03:22:00.032Z,1009.55
2023-01-29T03:22:59.846Z,1009.52
2023-01-29T03:23:59.861Z,1009.41
2023-01-29T03:24:59.827Z,1009.41
2023-01-29T03:25:59.844Z,1009.38
2023-01-29T03:26:59.834Z,1009.37
2023-01-29T03:27:59.806Z,1009.39
2023-01-29T03:28:59.793Z,1009.44
2023-01-29T03:29:59.780Z,1009.47
2023-01-29T03:30:59.778Z,1009.48
2023-01-29T03:31:59.805Z,1009.48
2023-01-29T03:32:59.783Z,1009.49
2023-01-29T03:33:59.743Z,1009.52
2023-01-29T03:34:59.776Z,1009.51
2023-01-29T03:35:59.712Z,1009.59
2023-01-29T03:36:59.705Z,1009.47
2023-01-29T03:37:59.712Z,1009.52
2023-01-29T03:38:59.679Z,1009.47
2023-01-29T03:39:59.666Z,1009.52
2023-01-29T03:40:59.657Z,1009.51
2023-01-29T03:41:59.660Z,1009.49
2023-01-29T03:42:59.661Z,1009.59
2023-01-29T03:43:59.635Z,1009.59
2023-01-29T03:44:59.610Z,1009.58
2023-01-29T03:45:59.610Z,1009.57
2023-01-29T03:46:59.605Z,1009.48
2023-01-29T03:47:59.593Z,1009.52
2023-01-29T03:48:59.574Z,1009.49
2023-01-29T03:49:59.570Z,1009.50
2023-01-29T03:50:59.550Z,1009.52
2023-01-29T03:51:59.532Z,1009.56
2023-01-29T03:52:59.540Z,1009.57
2023-01-29T03:53:59.525Z,1009.53
2023-01-29T03:54:59.497Z,1009.50
2023-01-29T03:55:59.495Z,1009.49
2023-01-29T03:56:59.493Z,1009.49
2023-01-29T03:57:59.497Z,1009.52
2023-01-29T03:58:59.452Z,1009.52
2023-01-29T03:59:59.447Z,1009.57
2023-01-29T04:00:59.431Z,1009.54
2023-01-29T04:01:59.440Z,1009.58
2023-01-29T04:02:59.437Z,1009.53
2023-01-29T04:03:59.439Z,1009.52
2023-01-29T04:04:59.389Z,1009.53
2023-01-29T04:05:59.384Z,1009.56
2023-01-29T04:06:59.363Z,1009.55
2023-01-29T04:07:59.377Z,1009.51
2023-01-29T04:08:59.350Z,1009.53
2023-01-29T04:09:59.367Z,1009.54
2023-01-29T04:10:59.339Z,1009.53
2023-01-29T04:11:59.321Z,1009.48
2023-01-29T04:12:59.328Z,1009.52
2023-01-29T04:13:59.307Z,1009.50
2023-01-29T04:14:59.277Z,1009.50
2023-01-29T04:15:59.276Z,1009.45
2023-01-29T04:16:59.284Z,1009.45
2023-01-29T04:17:59.249Z,1009.50
2023-01-29T04:18:59.263Z,1009.40
2023-01-29T04:19:59.233Z,1009.37
2023-01-29T04:20:59.217Z,1009.35
2023-01-29T04:21:59.205Z,1009.31
2023-01-29T04:22:59.193Z,1009.31
2023-01-29T04:23:59.313Z,1009.23
2023-01-29T04:24:59.180Z,1009.23
2023-01-29T04:25:59.159Z,1009.21
2023-01-29T04:26:59.153Z,1009.20
2023-01-29T04:27:59.140Z,1009.19
2023-01-29T04:28:59.142Z,1009.17
2023-01-29T04:29:59.116Z,1009.18
2023-01-29T04:30:59.173Z,1009.18
2023-01-29T04:31:59.109Z,1009.16
2023-01-29T04:32:59.103Z,1009.23
2023-01-29T04:33:59.070Z,1009.24
2023-01-29T04:34:59.081Z,1009.17
2023-01-29T04:35:59.057Z,1009.19
2023-01-29T04:36:59.046Z,1009.21
2023-01-29T04:37:59.036Z,1009.20
2023-01-29T04:38:59.031Z,1009.18
2023-01-29T04:39:59.011Z,1009.20
2023-01-29T04:40:58.993Z,1009.19
2023-01-29T04:41:58.989Z,1009.13
2023-01-29T04:42:58.996Z,1009.18
2023-01-29T04:43:58.986Z,1009.20
2023-01-29T04:44:58.949Z,1009.17
2023-01-29T04:45:58.939Z,1009.17
2023-01-29T04:46:58.928Z,1009.12
2023-01-29T04:47:58.936Z,1009.07
2023-01-29T04:48:58.907Z,1008.98
2023-01-29T04:49:58.929Z,1008.92
2023-01-29T04:50:58.888Z,1008.90
2023-01-29T04:51:58.880Z,1008.92
2023-01-29T04:52:58.865Z,1008.89
2023-01-29T04:53:58.871Z,1008.94
2023-01-29T04:54:58.859Z,1008.90
2023-01-29T04:55:58.836Z,1008.90
2023-01-29T04:56:58.845Z,1008.86
2023-01-29T04:57:58.817Z,1008.88
2023-01-29T04:58:58.800Z,1008.92
2023-01-29T04:59:58.809Z,1008.88
2023-01-29T05:00:58.773Z,1008.87
2023-01-29T05:01:58.813Z,1008.86
2023-01-29T05:02:58.790Z,1008.88
2023-01-29T05:03:58.757Z,1008.81
2023-01-29T05:04:58.733Z,1008.81
2023-01-29T05:05:58.728Z,1008.84
2023-01-29T05:06:58.708Z,1008.81
2023-01-29T05:07:58.718Z,1008.79
2023-01-29T05:08:58.688Z,1008.75
2023-01-29T05:09:58.697Z,1008.76
2023-01-29T05:10:58.682Z,1008.73
2023-01-29T05:11:58.653Z,1008.68
2023-01-29T05:12:58.639Z,1008.72
2023-01-29T05:13:58.655Z,1008.69
2023-01-29T05:14:58.628Z,1008.68
2023-01-29T05:15:58.675Z,1008.64
2023-01-29T05:16:58.609Z,1008.61
2023-01-29T05:17:58.591Z,1008.61
2023-01-29T05:18:58.577Z,1008.58
2023-01-29T05:19:58.590Z,1008.54
2023-01-29T05:20:58.552Z,1008.50
2023-01-29T05:21:58.554Z,1008.50
2023-01-29T05:22:58.554Z,1008.40
2023-01-29T05:23:58.571Z,1008.45
2023-01-29T05:24:58.509Z,1008.47
2023-01-29T05:25:58.502Z,1008.42
2023-01-29T05:26:58.518Z,1008.47
2023-01-29T05:27:58.486Z,1008.45
2023-01-29T05:28:58.485Z,1008.42
2023-01-29T05:29:58.461Z,1008.46
2023-01-29T05:30:58.607Z,1008.43
2023-01-29T05:31:58.513Z,1008.45
2023-01-29T05:32:58.429Z,1008.42
2023-01-29T05:33:58.422Z,1008.43
2023-01-29T05:34:58.396Z,1008.38
2023-01-29T05:35:58.385Z,1008.37
2023-01-29T05:36:58.397Z,1008.30
2023-01-29T05:37:58.409Z,1008.28
2023-01-29T05:38:58.356Z,1008.31
2023-01-29T05:39:58.422Z,1008.27
2023-01-29T05:40:58.335Z,1008.29
2023-01-29T05:41:58.331Z,1008.33
2023-01-29T05:42:58.315Z,1008.30
2023-01-29T05:43:58.297Z,1008.26
2023-01-29T05:44:58.346Z,1008.27
2023-01-29T05:45:58.317Z,1008.33
2023-01-29T05:46:58.290Z,1008.41
2023-01-29T05:47:58.255Z,1008.43
2023-01-29T05:48:58.254Z,1008.46
2023-01-29T05:49:58.234Z,1008.47
2023-01-29T05:50:58.244Z,1008.46
2023-01-29T05:51:58.223Z,1008.52
2023-01-29T05:52:58.200Z,1008.58
2023-01-29T05:53:58.191Z,1008.62
2023-01-29T05:54:58.210Z,1008.66
2023-01-29T05:55:58.189Z,1008.67
2023-01-29T05:56:58.166Z,1008.68
2023-01-29T05:57:58.171Z,1008.68
2023-01-29T05:58:58.130Z,1008.70
2023-01-29T05:59:58.122Z,1008.78
2023-01-29T06:00:58.163Z,1008.80
2023-01-29T06:01:58.163Z,1008.78
2023-01-29T06:02:58.144Z,1008.78
2023-01-29T06:03:58.120Z,1008.75
2023-01-29T06:04:58.093Z,1008.76
2023-01-29T06:05:58.097Z,1008.82
2023-01-29T06:06:58.046Z,1008.79
2023-01-29T06:07:58.044Z,1008.73
2023-01-29T06:08:58.024Z,1008.73
2023-01-29T06:09:58.021Z,1008.80
2023-01-29T06:10:58.025Z,1008.77
2023-01-29T06:11:57.995Z,1008.80
2023-01-29T06:12:58.000Z,1008.80
2023-01-29T06:13:57.989Z,1008.78
2023-01-29T06:14:57.957Z,1008.87
2023-01-29T06:15:57.996Z,1008.87
2023-01-29T06:16:57.937Z,1008.83
2023-01-29T06:17:57.962Z,1008.86
2023-01-29T06:18:57.923Z,1008.84
2023-01-29T06:19:57.910Z,1008.79
2023-01-29T06:20:57.894Z,1008.76
2023-01-29T06:21:57.904Z,1008.81
2023-01-29T06:22:57.868Z,1008.81
2023-01-29T06:23:57.890Z,1008.85
2023-01-29T06:24:57.853Z,1008.86
2023-01-29T06:25:57.845Z,1008.84
2023-01-29T06:26:57.855Z,1008.85
2023-01-29T06:27:59.534Z,1008.86
2023-01-29T06:28:57.810Z,1008.87
2023-01-29T06:29:57.798Z,1008.88
2023-01-29T06:31:01.290Z,1008.94
2023-01-29T06:31:58.881Z,1008.95
2023-01-29T06:32:57.760Z,1008.97
2023-01-29T06:33:57.772Z,1008.95
2023-01-29T06:34:57.738Z,1008.96
2023-01-29T06:35:57.746Z,1008.96
2023-01-29T06:36:57.716Z,1008.99
2023-01-29T06:37:57.708Z,1008.93
2023-01-29T06:38:57.710Z,1008.99
2023-01-29T06:39:57.703Z,1009.03
2023-01-29T06:40:57.680Z,1009.03
2023-01-29T06:41:57.667Z,1009.09
2023-01-29T06:42:57.661Z,1009.14
2023-01-29T06:43:57.641Z,1009.08
2023-01-29T06:44:57.663Z,1009.11
2023-01-29T06:45:57.678Z,1009.14
2023-01-29T06:46:57.620Z,1009.12
2023-01-29T06:47:59.906Z,1009.16
2023-01-29T06:48:57.591Z,1009.20
2023-01-29T06:49:57.599Z,1009.23
2023-01-29T06:50:57.574Z,1009.18
2023-01-29T06:51:57.553Z,1009.16
2023-01-29T06:52:57.542Z,1009.18
2023-01-29T06:53:57.539Z,1009.19
2023-01-29T06:54:57.573Z,1009.21
2023-01-29T06:55:57.518Z,1009.26
2023-01-29T06:56:57.502Z,1009.31
2023-01-29T06:57:57.518Z,1009.32
2023-01-29T06:58:57.480Z,1009.38
2023-01-29T06:59:57.484Z,1009.38
2023-01-29T07:00:57.643Z,1009.39
2023-01-29T07:01:57.473Z,1009.45
2023-01-29T07:02:57.435Z,1009.47
2023-01-29T07:03:57.418Z,1009.42
2023-01-29T07:04:57.414Z,1009.38
2023-01-29T07:05:57.419Z,1009.29
2023-01-29T07:06:57.419Z,1009.20
2023-01-29T07:07:57.379Z,1009.13
2023-01-29T07:08:57.364Z,1009.07
2023-01-29T07:09:57.382Z,1009.02
2023-01-29T07:10:57.365Z,1008.96
2023-01-29T07:11:57.344Z,1008.94
2023-01-29T07:12:57.346Z,1008.95
2023-01-29T07:13:57.329Z,1008.90
2023-01-29T07:14:57.301Z,1008.82
2023-01-29T07:15:57.315Z,1008.75
2023-01-29T07:16:57.282Z,1008.68
2023-01-29T07:17:57.287Z,1008.74
2023-01-29T07:18:57.263Z,1008.70
2023-01-29T07:19:57.246Z,1008.68
2023-01-29T07:20:57.237Z,1008.63
2023-01-29T07:21:57.228Z,1008.66
2023-01-29T07:22:57.226Z,1008.72
2023-01-29T07:23:57.271Z,1008.68
2023-01-29T07:24:57.194Z,1008.76
2023-01-29T07:25:57.175Z,1008.87
2023-01-29T07:26:57.169Z,1008.92
2023-01-29T07:27:58.715Z,1008.97
2023-01-29T07:28:57.169Z,1008.93
2023-01-29T07:29:57.163Z,1008.88
2023-01-29T07:30:57.163Z,1008.79
2023-01-29T07:31:57.207Z,1008.76
2023-01-29T07:32:57.122Z,1008.74
2023-01-29T07:33:57.111Z,1008.80
2023-01-29T07:34:57.088Z,1008.80
2023-01-29T07:35:57.078Z,1008.78
2023-01-29T07:36:57.061Z,1008.70
2023-01-29T07:37:57.052Z,1008.66
2023-01-29T07:38:57.069Z,1008.67
2023-01-29T07:39:57.033Z,1008.72
2023-01-29T07:40:57.043Z,1008.78
2023-01-29T07:41:57.001Z,1008.83
2023-01-29T07:42:57.001Z,1008.81
2023-01-29T07:43:57.003Z,1008.85
2023-01-29T07:44:56.992Z,1008.85
2023-01-29T07:45:57.132Z,1008.90
2023-01-29T07:46:56.954Z,1008.89
2023-01-29T07:47:56.959Z,1008.88
2023-01-29T07:48:56.948Z,1008.87
2023-01-29T07:49:56.913Z,1008.86
2023-01-29T07:50:56.907Z,1008.83
2023-01-29T07:51:56.889Z,1008.84
2023-01-29T07:52:56.931Z,1008.86
2023-01-29T07:53:56.871Z,1008.95
2023-01-29T07:54:56.863Z,1009.05
2023-01-29T07:55:56.869Z,1009.07
2023-01-29T07:56:56.843Z,1009.11
2023-01-29T07:57:56.850Z,1009.06
2023-01-29T07:58:56.825Z,1009.05
2023-01-29T07:59:56.822Z,1009.02
2023-01-29T08:00:56.850Z,1009.05
2023-01-29T08:01:56.849Z,1009.01
2023-01-29T08:02:56.793Z,1009.00
2023-01-29T08:03:56.774Z,1009.03
2023-01-29T08:04:56.748Z,1009.03
2023-01-29T08:05:56.737Z,1009.06
2023-01-29T08:06:56.753Z,1009.08
2023-01-29T08:08:06.204Z,1009.14
2023-01-29T08:08:57.719Z,1009.13
2023-01-29T08:09:56.697Z,1009.08
2023-01-29T08:10:56.705Z,1009.06
2023-01-29T08:11:56.675Z,1009.02
2023-01-29T08:12:56.675Z,1008.99
2023-01-29T08:13:56.682Z,1008.99
2023-01-29T08:14:56.673Z,1009.04
2023-01-29T08:15:56.640Z,1009.04
2023-01-29T08:16:56.652Z,1009.01
2023-01-29T08:17:58.269Z,1008.90
2023-01-29T08:18:56.619Z,1008.92
2023-01-29T08:19:56.602Z,1008.98
2023-01-29T08:20:56.602Z,1008.97
2023-01-29T08:21:56.561Z,1008.95
2023-01-29T08:22:56.554Z,1008.92
2023-01-29T08:23:56.649Z,1008.88
2023-01-29T08:25:06.497Z,1008.84
2023-01-29T08:25:57.656Z,1008.82
2023-01-29T08:26:56.535Z,1008.77
2023-01-29T08:27:56.505Z,1008.82
2023-01-29T08:28:56.504Z,1008.75
2023-01-29T08:29:56.485Z,1008.78
2023-01-29T08:30:56.473Z,1008.77
2023-01-29T08:31:56.524Z,1008.75
2023-01-29T08:32:56.468Z,1008.75
2023-01-29T08:33:56.458Z,1008.76
2023-01-29T08:34:56.423Z,1008.72
2023-01-29T08:35:56.410Z,1008.74
2023-01-29T08:36:56.435Z,1008.78
2023-01-29T08:37:56.430Z,1008.81
2023-01-29T08:38:56.377Z,1008.82
2023-01-29T08:39:56.357Z,1008.86
2023-01-29T08:40:56.361Z,1008.82
2023-01-29T08:41:56.359Z,1008.81
2023-01-29T08:42:56.350Z,1008.75
2023-01-29T08:43:56.314Z,1008.81
2023-01-29T08:44:56.312Z,1008.73
2023-01-29T08:45:56.345Z,1008.68
2023-01-29T08:46:56.326Z,1008.66
2023-01-29T08:47:56.279Z,1008.71
2023-01-29T08:48:56.273Z,1008.62
2023-01-29T08:49:56.265Z,1008.56
2023-01-29T08:50:56.242Z,1008.54
2023-01-29T08:51:56.235Z,1008.45
2023-01-29T08:52:56.245Z,1008.34
2023-01-29T08:53:56.214Z,1008.33
2023-01-29T08:54:56.237Z,1008.33
2023-01-29T08:55:56.204Z,1008.32
2023-01-29T08:56:56.174Z,1008.26
2023-01-29T08:57:56.204Z,1008.23
2023-01-29T08:58:57.318Z,1008.25
2023-01-29T08:59:56.151Z,1008.25
2023-01-29T09:00:56.219Z,1008.25
2023-01-29T09:01:56.120Z,1008.27
2023-01-29T09:02:56.128Z,1008.25
2023-01-29T09:03:56.098Z,1008.30
2023-01-29T09:04:56.103Z,1008.37
2023-01-29T09:05:56.092Z,1008.37
2023-01-29T09:06:56.068Z,1008.41
2023-01-29T09:07:56.073Z,1008.44
2023-01-29T09:08:56.047Z,1008.51
2023-01-29T09:09:56.039Z,1008.50
2023-01-29T09:10:56.022Z,1008.53
2023-01-29T09:11:56.043Z,1008.54
2023-01-29T09:12:55.997Z,1008.54
2023-01-29T09:13:55.986Z,1008.56
2023-01-29T09:14:56.003Z,1008.53
2023-01-29T09:15:56.878Z,1008.59
2023-01-29T09:16:56.005Z,1008.58
2023-01-29T09:17:55.948Z,1008.56
2023-01-29T09:18:55.976Z,1008.56
2023-01-29T09:19:55.943Z,1008.54
2023-01-29T09:20:55.942Z,1008.57
2023-01-29T09:21:55.910Z,1008.58
2023-01-29T09:22:55.941Z,1008.56
2023-01-29T09:23:55.956Z,1008.55
2023-01-29T09:24:55.871Z,1008.53
2023-01-29T09:25:55.849Z,1008.49
2023-01-29T09:26:55.839Z,1008.47
2023-01-29T09:27:55.829Z,1008.52
2023-01-29T09:28:55.839Z,1008.50
2023-01-29T09:29:55.812Z,1008.48
2023-01-29T09:30:55.878Z,1008.49
2023-01-29T09:31:55.889Z,1008.46
2023-01-29T09:32:55.806Z,1008.45
2023-01-29T09:33:55.773Z,1008.47
2023-01-29T09:34:55.780Z,1008.47
2023-01-29T09:35:55.742Z,1008.41
2023-01-29T09:36:55.747Z,1008.44
2023-01-29T09:37:55.768Z,1008.47
2023-01-29T09:38:55.731Z,1008.46
2023-01-29T09:39:55.697Z,1008.44
2023-01-29T09:40:55.685Z,1008.45
2023-01-29T09:41:55.678Z,1008.48
2023-01-29T09:42:55.681Z,1008.45
2023-01-29T09:43:55.645Z,1008.42
2023-01-29T09:44:55.666Z,1008.36
2023-01-29T09:45:55.653Z,1008.38
2023-01-29T09:46:55.612Z,1008.31
2023-01-29T09:47:55.606Z,1008.23
2023-01-29T09:48:55.625Z,1008.28
2023-01-29T09:49:55.585Z,1008.28
2023-01-29T09:50:55.576Z,1008.27
2023-01-29T09:51:55.568Z,1008.28
2023-01-29T09:52:55.572Z,1008.28
2023-01-29T09:53:55.542Z,1008.22
2023-01-29T09:54:55.569Z,1008.21
2023-01-29T09:55:55.522Z,1008.18
2023-01-29T09:56:55.513Z,1008.19
2023-01-29T09:57:55.491Z,1008.19
2023-01-29T09:58:55.517Z,1008.19
2023-01-29T09:59:55.524Z,1008.17
2023-01-29T10:00:55.471Z,1008.14
2023-01-29T10:01:55.520Z,1008.12
2023-01-29T10:02:55.445Z,1008.07
2023-01-29T10:03:55.426Z,1008.12
2023-01-29T10:04:55.421Z,1008.10
2023-01-29T10:05:55.428Z,1008.13
2023-01-29T10:06:55.419Z,1008.11
2023-01-29T10:07:55.377Z,1008.08
2023-01-29T10:08:55.382Z,1008.07
2023-01-29T10:09:55.358Z,1008.05
2023-01-29T10:10:55.369Z,1008.05
2023-01-29T10:11:58.002Z,1007.96
2023-01-29T10:12:55.334Z,1007.98
2023-01-29T10:13:55.320Z,1007.94
2023-01-29T10:14:55.308Z,1007.89
2023-01-29T10:15:55.325Z,1007.91
2023-01-29T10:16:55.353Z,1007.87
2023-01-29T10:17:55.278Z,1007.88
2023-01-29T10:18:55.257Z,1007.85
2023-01-29T10:19:55.271Z,1007.80
2023-01-29T10:20:55.236Z,1007.82
2023-01-29T10:21:55.263Z,1007.79
2023-01-29T10:22:55.238Z,1007.75
2023-01-29T10:23:55.214Z,1007.73
2023-01-29T10:24:55.219Z,1007.74
2023-01-29T10:25:55.187Z,1007.72
2023-01-29T10:26:55.177Z,1007.75
2023-01-29T10:27:55.195Z,1007.65
2023-01-29T10:28:55.159Z,1007.67
2023-01-29T10:29:55.136Z,1007.69
2023-01-29T10:30:55.253Z,1007.67
2023-01-29T10:31:55.295Z,1007.67
2023-01-29T10:32:55.102Z,1007.69
2023-01-29T10:34:02.113Z,1007.70
2023-01-29T10:34:56.087Z,1007.68
2023-01-29T10:35:55.959Z,1007.65
2023-01-29T10:36:55.068Z,1007.64
2023-01-29T10:37:55.102Z,1007.62
2023-01-29T10:38:55.037Z,1007.54
2023-01-29T10:39:55.019Z,1007.54
2023-01-29T10:40:55.038Z,1007.50
2023-01-29T10:41:55.014Z,1007.50
2023-01-29T10:42:55.003Z,1007.51
2023-01-29T10:43:54.977Z,1007.47
2023-01-29T10:44:54.991Z,1007.50
2023-01-29T10:45:54.955Z,1007.45
2023-01-29T10:46:54.956Z,1007.43
2023-01-29T10:47:54.948Z,1007.42
2023-01-29T10:48:54.929Z,1007.41
2023-01-29T10:49:54.941Z,1007.44
2023-01-29T10:50:54.915Z,1007.50
2023-01-29T10:51:54.896Z,1007.48
2023-01-29T10:52:57.180Z,1007.44
2023-01-29T10:53:54.883Z,1007.47
2023-01-29T10:54:54.855Z,1007.44
2023-01-29T10:55:54.860Z,1007.43
2023-01-29T10:56:54.866Z,1007.42
2023-01-29T10:57:54.821Z,1007.39
2023-01-29T10:58:54.812Z,1007.36
2023-01-29T10:59:54.850Z,1007.32
2023-01-29T11:00:54.841Z,1007.37
2023-01-29T11:01:54.832Z,1007.34
2023-01-29T11:02:54.901Z,1007.28
2023-01-29T11:03:54.753Z,1007.25
2023-01-29T11:04:54.756Z,1007.25
2023-01-29T11:05:54.767Z,1007.21
2023-01-29T11:06:54.724Z,1007.26
2023-01-29T11:07:54.706Z,1007.21
2023-01-29T11:08:54.714Z,1007.20
2023-01-29T11:09:54.729Z,1007.24
2023-01-29T11:10:54.698Z,1007.23
2023-01-29T11:11:54.668Z,1007.23
2023-01-29T11:12:54.659Z,1007.23
2023-01-29T11:13:54.645Z,1007.24
2023-01-29T11:14:54.658Z,1007.23
2023-01-29T11:15:54.655Z,1007.21
2023-01-29T11:16:54.717Z,1007.21
2023-01-29T11:17:54.641Z,1007.18
2023-01-29T11:18:54.593Z,1007.14
2023-01-29T11:19:54.579Z,1007.16
2023-01-29T11:20:54.592Z,1007.15
2023-01-29T11:21:54.558Z,1007.16
2023-01-29T11:22:54.563Z,1007.16
2023-01-29T11:23:54.548Z,1007.10
2023-01-29T11:24:54.521Z,1007.05
2023-01-29T11:25:54.518Z,1007.09
2023-01-29T11:26:54.498Z,1007.08
2023-01-29T11:27:54.514Z,1007.04
2023-01-29T11:28:54.477Z,1007.05
2023-01-29T11:29:54.476Z,1007.05
2023-01-29T11:30:54.549Z,1007.03
2023-01-29T11:31:54.530Z,1007.03
2023-01-29T11:32:54.438Z,1007.06
2023-01-29T11:33:54.440Z,1007.04
2023-01-29T11:34:54.408Z,1007.00
2023-01-29T11:35:54.416Z,1006.99
2023-01-29T11:36:54.432Z,1006.95
2023-01-29T11:37:54.387Z,1006.97
2023-01-29T11:38:54.397Z,1006.94
2023-01-29T11:39:54.357Z,1006.92
2023-01-29T11:40:54.339Z,1006.90
2023-01-29T11:41:54.353Z,1006.91
2023-01-29T11:42:54.348Z,1006.88
2023-01-29T11:43:54.309Z,1006.87
2023-01-29T11:44:54.302Z,1006.89
2023-01-29T11:45:54.288Z,1006.85
2023-01-29T11:46:54.273Z,1006.80
2023-01-29T11:47:54.306Z,1006.83
2023-01-29T11:48:59.094Z,1006.82
2023-01-29T11:49:54.255Z,1006.81
2023-01-29T11:50:54.236Z,1006.77
2023-01-29T11:51:54.267Z,1006.78
2023-01-29T11:52:54.222Z,1006.76
2023-01-29T11:53:54.197Z,1006.75
2023-01-29T11:54:54.198Z,1006.77
2023-01-29T11:55:54.198Z,1006.74
2023-01-29T11:56:54.184Z,1006.75
2023-01-29T11:57:54.197Z,1006.73
2023-01-29T11:58:54.160Z,1006.70
2023-01-29T11:59:54.133Z,1006.68
2023-01-29T12:00:54.114Z,1006.62
2023-01-29T12:01:54.115Z,1006.64
2023-01-29T12:02:54.123Z,1006.57
2023-01-29T12:03:54.160Z,1006.56
2023-01-29T12:04:54.095Z,1006.59